Time;durP1;ratioP1;P1;durP2;ratioP2;P2;SDS_P1;SDS_P2;PMS_P1;PMS_P2;Temp;Humidity;BMP_temperature;BMP_pressure;BME280_temperature;BME280_humidity;BME280_pressure;Samples;Min_cycle;Max_cycle;Signal;HPM_P1;HPM_P2
2022/06/15 00:01:50;;;;;;;;;;;15.00;99.90;;;;;;10196507;28;84861;-50
2022/06/15 00:06:51;;;;;;;;;;;14.90;99.90;;;;;;10169316;28;84101;-50
2022/06/15 00:11:51;;;;;;;;;;;14.90;99.90;;;;;;10176502;28;86855;-49
2022/06/15 00:16:52;;;;;;;;;;;14.80;99.90;;;;;;10210246;28;84361;-53
2022/06/15 00:21:52;;;;;;;;;;;14.70;99.90;;;;;;10274504;22;86368;-51
2022/06/15 00:26:53;;;;;;;;;;;14.60;1.00;;;;;;10290110;28;84117;-48
2022/06/15 00:31:53;;;;;;;;;;;14.60;1.00;;;;;;10279231;28;85037;-48
2022/06/15 00:36:54;;;;;;;;;;;14.50;1.00;;;;;;10247208;28;87069;-47
2022/06/15 00:41:55;;;;;;;;;;;14.50;1.00;;;;;;10257939;28;84114;-49
2022/06/15 00:47:11;;;;;;;;;;;14.40;1.00;;;;;;10275144;28;85883;-48
2022/06/15 00:52:13;;;;;;;;;;;14.40;1.00;;;;;;10285281;28;86043;-51
2022/06/15 00:57:14;;;;;;;;;;;14.40;1.00;;;;;;10289157;28;83988;-49
2022/06/15 01:02:15;;;;;;;;;;;14.30;1.00;;;;;;10248070;28;85847;-51
2022/06/15 01:07:34;;;;;;;;;;;14.20;1.00;;;;;;10246151;28;84921;-53
2022/06/15 01:12:38;;;;;;;;;;;14.20;1.00;;;;;;10240945;28;84322;-48
2022/06/15 01:17:56;;;;;;;;;;;14.20;1.00;;;;;;10247743;28;84692;-52
2022/06/15 01:22:59;;;;;;;;;;;14.10;1.00;;;;;;10246637;28;84904;-49
2022/06/15 01:28:00;;;;;;;;;;;14.00;1.00;;;;;;10250806;28;84934;-49
2022/06/15 01:33:04;;;;;;;;;;;13.90;1.00;;;;;;10286660;28;84101;-49
2022/06/15 01:38:20;;;;;;;;;;;13.90;1.00;;;;;;10281260;28;85815;-48
2022/06/15 01:43:22;;;;;;;;;;;13.90;1.00;;;;;;10245148;28;86826;-48
2022/06/15 01:48:26;;;;;;;;;;;13.90;1.00;;;;;;10235478;28;87373;-46
2022/06/15 01:53:40;;;;;;;;;;;13.90;1.00;;;;;;10284830;28;86816;-47
2022/06/15 01:58:43;;;;;;;;;;;13.80;1.00;;;;;;10275611;28;86772;-49
2022/06/15 02:03:56;;;;;;;;;;;13.70;1.00;;;;;;10269930;28;85904;-49
2022/06/15 02:09:17;;;;;;;;;;;13.60;1.00;;;;;;10285030;28;84124;-47
2022/06/15 02:14:21;;;;;;;;;;;13.60;1.00;;;;;;10255523;28;86968;-47
2022/06/15 02:19:31;;;;;;;;;;;13.60;1.00;;;;;;10243857;28;86910;-46
2022/06/15 02:24:32;;;;;;;;;;;13.50;1.00;;;;;;10274323;28;85978;-51
2022/06/15 02:29:35;;;;;;;;;;;13.50;1.00;;;;;;10284714;28;85718;-46
2022/06/15 02:34:35;;;;;;;;;;;13.50;1.00;;;;;;10257339;28;86906;-47
2022/06/15 02:39:36;;;;;;;;;;;13.40;1.00;;;;;;10249797;28;85683;-49
2022/06/15 02:44:40;;;;;;;;;;;13.40;1.00;;;;;;10244570;28;85789;-47
2022/06/15 02:49:44;;;;;;;;;;;13.40;1.00;;;;;;10271553;28;86031;-48
2022/06/15 02:54:48;;;;;;;;;;;13.40;1.00;;;;;;10287265;28;87013;-49
2022/06/15 02:59:55;;;;;;;;;;;13.40;1.00;;;;;;10265233;28;85814;-47
2022/06/15 03:04:59;;;;;;;;;;;13.30;1.00;;;;;;10274239;28;85799;-45
2022/06/15 03:10:00;;;;;;;;;;;13.30;1.00;;;;;;10289873;28;86523;-50
2022/06/15 03:15:00;;;;;;;;;;;13.30;1.00;;;;;;10258897;28;84046;-47
2022/06/15 03:20:01;;;;;;;;;;;13.30;1.00;;;;;;10250095;28;86813;-49
2022/06/15 03:25:05;;;;;;;;;;;13.30;1.00;;;;;;10254854;28;85942;-52
2022/06/15 03:30:07;;;;;;;;;;;13.30;1.00;;;;;;10282632;28;85744;-53
2022/06/15 03:35:16;;;;;;;;;;;13.30;1.00;;;;;;10289176;28;85773;-51
2022/06/15 03:40:17;;;;;;;;;;;13.40;1.00;;;;;;10290998;28;85688;-52
2022/06/15 03:45:20;;;;;;;;;;;13.30;1.00;;;;;;10254232;28;86445;-47
2022/06/15 03:50:26;;;;;;;;;;;13.30;1.00;;;;;;10248330;28;86888;-50
2022/06/15 03:55:31;;;;;;;;;;;13.30;1.00;;;;;;10285059;28;86107;-50
2022/06/15 04:00:33;;;;;;;;;;;13.20;1.00;;;;;;10293038;28;84024;-47
2022/06/15 04:05:51;;;;;;;;;;;13.20;1.00;;;;;;10293642;28;85993;-49
2022/06/15 04:10:53;;;;;;;;;;;13.20;1.00;;;;;;10278080;28;85612;-48
2022/06/15 04:15:53;;;;;;;;;;;13.30;1.00;;;;;;10230952;28;86761;-47
2022/06/15 04:20:57;;;;;;;;;;;13.40;1.00;;;;;;10226446;28;84932;-46
2022/06/15 04:26:02;;;;;;;;;;;13.50;1.00;;;;;;10228610;28;86079;-51
2022/06/15 04:31:21;;;;;;;;;;;13.60;1.00;;;;;;10230176;28;86014;-47
2022/06/15 04:36:25;;;;;;;;;;;13.60;1.00;;;;;;10224400;28;85785;-47
2022/06/15 04:41:38;;;;;;;;;;;13.70;1.00;;;;;;10227578;28;86038;-46
2022/06/15 04:46:39;;;;;;;;;;;13.70;1.00;;;;;;10288943;28;84736;-48
2022/06/15 04:51:42;;;;;;;;;;;13.80;1.00;;;;;;10254858;28;86152;-46
2022/06/15 04:56:43;;;;;;;;;;;13.90;1.00;;;;;;10237984;28;87065;-47
2022/06/15 05:01:46;;;;;;;;;;;14.00;1.00;;;;;;10265762;28;85366;-47
2022/06/15 05:06:49;;;;;;;;;;;14.10;1.00;;;;;;10249453;28;85929;-51
2022/06/15 05:11:51;;;;;;;;;;;14.30;1.00;;;;;;10241449;28;86995;-48
2022/06/15 05:16:52;;;;;;;;;;;14.50;1.00;;;;;;10264867;28;85983;-49
2022/06/15 05:21:59;;;;;;;;;;;14.60;1.00;;;;;;10219688;28;85756;-47
2022/06/15 05:27:01;;;;;;;;;;;14.90;1.00;;;;;;10249946;28;85925;-48
2022/06/15 05:32:03;;;;;;;;;;;15.10;1.00;;;;;;10223769;28;85387;-50
2022/06/15 05:37:04;;;;;;;;;;;15.30;1.00;;;;;;10245380;28;84692;-47
2022/06/15 05:42:09;;;;;;;;;;;15.50;1.00;;;;;;10278100;28;85869;-47
2022/06/15 05:47:11;;;;;;;;;;;15.70;1.00;;;;;;10279679;28;85736;-47
2022/06/15 05:52:30;;;;;;;;;;;15.90;1.00;;;;;;10251120;28;84122;-50
2022/06/15 05:57:31;;;;;;;;;;;16.20;99.90;;;;;;10246450;28;85120;-50
2022/06/15 06:02:31;;;;;;;;;;;16.50;99.90;;;;;;10245664;28;85057;-48
2022/06/15 06:07:32;;;;;;;;;;;16.70;95.00;;;;;;10248454;28;84263;-48
2022/06/15 06:12:32;;;;;;;;;;;16.80;99.90;;;;;;10250902;28;86965;-49
2022/06/15 06:17:33;;;;;;;;;;;17.00;1.00;;;;;;10253184;28;84065;-48
2022/06/15 06:22:33;;;;;;;;;;;17.20;1.00;;;;;;10298596;22;85286;-55
2022/06/15 06:27:34;;;;;;;;;;;17.50;1.00;;;;;;10292434;28;84896;-56
2022/06/15 06:32:35;;;;;;;;;;;17.60;1.00;;;;;;10291959;28;84347;-53
2022/06/15 06:37:35;;;;;;;;;;;17.90;1.00;;;;;;10291658;28;84794;-57
2022/06/15 06:42:36;;;;;;;;;;;18.10;1.00;;;;;;10291420;28;84861;-55
2022/06/15 06:47:37;;;;;;;;;;;18.30;99.90;;;;;;10292256;28;84051;-54
2022/06/15 06:52:38;;;;;;;;;;;18.50;99.90;;;;;;10291396;28;84731;-55
2022/06/15 06:57:38;;;;;;;;;;;18.80;1.00;;;;;;10291529;28;84892;-55
2022/06/15 07:02:39;;;;;;;;;;;19.10;1.00;;;;;;10291497;28;84776;-56
2022/06/15 07:07:39;;;;;;;;;;;19.20;99.90;;;;;;10291400;28;84109;-55
2022/06/15 07:12:42;;;;;;;;;;;19.50;99.90;;;;;;10289658;28;85142;-56
2022/06/15 07:17:42;;;;;;;;;;;19.70;1.00;;;;;;10291265;28;84949;-57
2022/06/15 07:22:43;;;;;;;;;;;20.00;99.90;;;;;;10290664;28;85685;-56
2022/06/15 07:27:44;;;;;;;;;;;20.20;99.90;;;;;;10288664;28;86094;-58
2022/06/15 07:32:45;;;;;;;;;;;20.80;1.00;;;;;;10290125;28;84937;-54
2022/06/15 07:37:46;;;;;;;;;;;21.50;99.90;;;;;;10272190;28;84766;-57
2022/06/15 07:42:48;;;;;;;;;;;22.30;1.00;;;;;;10290282;28;84492;-56
2022/06/15 07:53:09;;;;;;;;;;;23.10;1.00;;;;;;10289669;28;84911;-58
2022/06/15 07:58:09;;;;;;;;;;;23.80;1.00;;;;;;10287812;28;86911;-59
2022/06/15 08:03:10;;;;;;;;;;;24.40;99.90;;;;;;10289069;28;84835;-57
2022/06/15 08:08:13;;;;;;;;;;;24.90;1.00;;;;;;10288872;28;84724;-56
2022/06/15 08:13:13;;;;;;;;;;;25.20;1.00;;;;;;10287248;28;85374;-54
2022/06/15 08:18:16;;;;;;;;;;;25.40;1.00;;;;;;10288110;28;84810;-57
2022/06/15 08:23:19;;;;;;;;;;;26.10;1.00;;;;;;10286966;28;84317;-57
2022/06/15 08:28:21;;;;;;;;;;;26.90;99.90;;;;;;10287238;28;84738;-52
2022/06/15 08:33:22;;;;;;;;;;;26.80;99.90;;;;;;10286981;28;84148;-58
2022/06/15 08:38:24;;;;;;;;;;;26.80;99.90;;;;;;10287926;28;84066;-56
2022/06/15 08:43:31;;;;;;;;;;;27.70;3.50;;;;;;10288663;28;84115;-57
2022/06/15 08:48:37;;;;;;;;;;;27.70;1.00;;;;;;10286350;28;85748;-55
2022/06/15 08:54:00;;;;;;;;;;;28.00;1.00;;;;;;10286910;28;84156;-57
2022/06/15 08:59:07;;;;;;;;;;;28.80;1.00;;;;;;10286910;28;84102;-57
2022/06/15 09:04:13;;;;;;;;;;;28.80;1.00;;;;;;10286549;28;84159;-58
2022/06/15 09:09:25;;;;;;;;;;;29.00;1.00;;;;;;10286673;28;85018;-55
2022/06/15 09:14:36;;;;;;;;;;;29.40;1.00;;;;;;10286095;28;84106;-56
2022/06/15 09:19:43;;;;;;;;;;;30.10;1.00;;;;;;10286351;28;84199;-54
2022/06/15 09:24:53;;;;;;;;;;;30.50;1.00;;;;;;10284786;28;85056;-58
2022/06/15 09:29:58;;;;;;;;;;;30.50;1.00;;;;;;10285303;28;84876;-56
2022/06/15 09:35:04;;;;;;;;;;;30.90;1.00;;;;;;10285569;28;84136;-58
2022/06/15 09:40:05;;;;;;;;;;;31.20;1.00;;;;;;10285824;28;84431;-54
2022/06/15 09:45:13;;;;;;;;;;;31.10;1.00;;;;;;10285761;28;84231;-56
2022/06/15 09:50:28;;;;;;;;;;;31.40;1.00;;;;;;10284872;28;84915;-57
2022/06/15 09:55:29;;;;;;;;;;;30.80;1.00;;;;;;10285452;28;84221;-57
2022/06/15 10:00:29;;;;;;;;;;;31.20;1.00;;;;;;10284971;28;85669;-57
2022/06/15 10:05:31;;;;;;;;;;;31.90;1.00;;;;;;10285608;28;84289;-58
2022/06/15 10:10:33;;;;;;;;;;;31.70;1.00;;;;;;10284258;28;84066;-57
2022/06/15 10:15:47;;;;;;;;;;;31.90;1.00;;;;;;10284794;28;84892;-58
2022/06/15 10:21:14;;;;;;;;;;;31.80;1.00;;;;;;10283787;28;84726;-57
2022/06/15 10:26:24;;;;;;;;;;;32.20;1.00;;;;;;10279505;28;85053;-58
2022/06/15 10:31:27;;;;;;;;;;;32.00;1.00;;;;;;10284157;28;84117;-55
2022/06/15 10:36:32;;;;;;;;;;;32.40;1.00;;;;;;10283768;28;85089;-60
2022/06/15 10:41:46;;;;;;;;;;;32.30;1.00;;;;;;10283517;28;84927;-58
2022/06/15 10:46:58;;;;;;;;;;;32.80;1.00;;;;;;10283530;28;84077;-60
2022/06/15 10:51:59;;;;;;;;;;;32.60;1.00;;;;;;10281668;28;87112;-58
2022/06/15 11:02:37;;;;;;;;;;;34.10;1.00;;;;;;10290130;28;84855;-57
2022/06/15 11:07:52;;;;;;;;;;;34.00;1.00;;;;;;10290941;28;85082;-57
2022/06/15 11:12:56;;;;;;;;;;;34.20;1.00;;;;;;10290863;28;84213;-55
2022/06/15 11:18:01;;;;;;;;;;;34.40;1.00;;;;;;10292121;28;85028;-58
2022/06/15 11:23:21;;;;;;;;;;;34.30;1.00;;;;;;10289875;28;84970;-58
2022/06/15 11:28:29;;;;;;;;;;;34.10;1.00;;;;;;10289022;28;86744;-54
2022/06/15 11:33:39;;;;;;;;;;;34.30;1.00;;;;;;10290341;28;84748;-57
2022/06/15 11:38:51;;;;;;;;;;;34.00;99.90;;;;;;10292247;28;85891;-57
2022/06/15 11:43:54;;;;;;;;;;;34.00;99.90;;;;;;10291304;28;84066;-58
2022/06/15 11:49:13;;;;;;;;;;;35.00;99.90;;;;;;10293575;28;84108;-59
2022/06/15 11:54:17;;;;;;;;;;;35.30;99.90;;;;;;10283403;28;85743;-60
2022/06/15 11:59:25;;;;;;;;;;;35.20;99.90;;;;;;10273231;28;84308;-59
2022/06/15 12:04:32;;;;;;;;;;;35.00;99.90;;;;;;10281572;28;84500;-59
2022/06/15 12:09:44;;;;;;;;;;;35.50;99.90;;;;;;10291361;28;84176;-59
2022/06/15 12:14:51;;;;;;;;;;;35.20;99.90;;;;;;10288120;28;84146;-60
2022/06/15 12:25:33;;;;;;;;;;;34.60;99.90;;;;;;10159385;28;84594;-57
2022/06/15 12:30:39;;;;;;;;;;;35.10;99.90;;;;;;10160648;28;84194;-57
2022/06/15 12:35:44;;;;;;;;;;;34.10;99.90;;;;;;10183739;28;84947;-55
2022/06/15 12:40:49;;;;;;;;;;;33.90;99.90;;;;;;10181173;28;84905;-55
2022/06/15 12:45:51;;;;;;;;;;;34.20;99.90;;;;;;10164732;28;85728;-51
2022/06/15 12:51:03;;;;;;;;;;;34.80;99.90;;;;;;10181132;28;85778;-55
2022/06/15 12:56:22;;;;;;;;;;;34.60;99.90;;;;;;10168152;28;84261;-59
2022/06/15 13:01:25;;;;;;;;;;;35.20;99.90;;;;;;10184733;28;84459;-56
2022/06/15 13:06:27;;;;;;;;;;;35.10;99.90;;;;;;10169743;28;86322;-59
2022/06/15 13:11:29;;;;;;;;;;;35.50;99.90;;;;;;10180421;28;86464;-59
2022/06/15 13:16:32;;;;;;;;;;;35.80;99.90;;;;;;10165664;28;84810;-59
2022/06/15 13:21:48;;;;;;;;;;;36.10;99.90;;;;;;10149854;28;87223;-57
2022/06/15 13:26:49;;;;;;;;;;;35.80;99.90;;;;;;10163366;28;84904;-56
2022/06/15 13:32:00;;;;;;;;;;;34.70;99.90;;;;;;10164221;28;85150;-55
2022/06/15 13:37:18;;;;;;;;;;;34.50;99.90;;;;;;10162473;28;85056;-58
2022/06/15 13:42:21;;;;;;;;;;;34.30;99.90;;;;;;10165200;28;84867;-57
2022/06/15 13:47:24;;;;;;;;;;;33.60;99.90;;;;;;10163312;28;84444;-55
2022/06/15 13:52:27;;;;;;;;;;;33.20;99.90;;;;;;10164841;28;84722;-54
2022/06/15 13:57:37;;;;;;;;;;;33.40;99.90;;;;;;10164924;28;84441;-55
2022/06/15 14:02:37;;;;;;;;;;;33.10;99.90;;;;;;10160741;28;84965;-53
2022/06/15 14:07:53;;;;;;;;;;;31.20;99.90;;;;;;10163285;28;85477;-57
2022/06/15 14:13:02;;;;;;;;;;;30.80;99.90;;;;;;10162683;28;84964;-56
2022/06/15 14:18:22;;;;;;;;;;;30.80;99.90;;;;;;10162904;28;84851;-56
2022/06/15 14:23:28;;;;;;;;;;;30.20;99.90;;;;;;10161748;28;85131;-56
2022/06/15 14:28:30;;;;;;;;;;;29.50;99.90;;;;;;10159389;28;84961;-59
2022/06/15 14:33:31;;;;;;;;;;;29.00;99.90;;;;;;10169185;28;84590;-61
2022/06/15 14:38:32;;;;;;;;;;;28.90;99.90;;;;;;10193074;28;85658;-63
2022/06/15 14:43:36;;;;;;;;;;;29.00;99.90;;;;;;10157171;28;84905;-63
2022/06/15 14:48:37;;;;;;;;;;;29.10;99.90;;;;;;10176330;28;85326;-51
2022/06/15 14:53:42;;;;;;;;;;;28.80;99.90;;;;;;10186750;28;84897;-54
2022/06/15 14:58:55;;;;;;;;;;;28.80;99.90;;;;;;10157326;28;84996;-56
2022/06/15 15:04:17;;;;;;;;;;;28.80;99.90;;;;;;10133736;28;84733;-53
2022/06/15 15:09:18;;;;;;;;;;;28.80;99.90;;;;;;10162626;28;85201;-51
2022/06/15 15:14:22;;;;;;;;;;;28.60;99.90;;;;;;10171458;28;84936;-51
2022/06/15 15:19:37;;;;;;;;;;;28.60;99.90;;;;;;10138929;28;84029;-51
2022/06/15 15:24:49;;;;;;;;;;;28.00;99.90;;;;;;10132138;28;84144;-51
2022/06/15 15:35:15;;;;;;;;;;;28.00;99.90;;;;;;10186569;28;85976;-55
2022/06/15 15:40:24;;;;;;;;;;;28.00;99.90;;;;;;10148523;28;84120;-55
2022/06/15 15:45:25;;;;;;;;;;;27.80;99.90;;;;;;10147661;28;84918;-53
2022/06/15 15:50:26;;;;;;;;;;;27.60;99.90;;;;;;10154712;28;85084;-54
2022/06/15 15:55:27;;;;;;;;;;;27.40;99.90;;;;;;10170949;28;84276;-57
2022/06/15 16:00:30;;;;;;;;;;;27.40;99.90;;;;;;10159293;28;85988;-52
2022/06/15 16:05:31;;;;;;;;;;;27.50;99.90;;;;;;10171601;28;84739;-56
2022/06/15 16:10:36;;;;;;;;;;;27.40;99.90;;;;;;10161735;28;84262;-55
2022/06/15 16:15:39;;;;;;;;;;;27.30;99.90;;;;;;10159603;28;85133;-49
2022/06/15 16:20:42;;;;;;;;;;;27.00;99.90;;;;;;10137884;28;84072;-52
2022/06/15 16:25:42;;;;;;;;;;;26.80;99.90;;;;;;10140784;28;84843;-55
2022/06/15 16:30:44;;;;;;;;;;;26.80;99.90;;;;;;10147712;28;84528;-54
2022/06/15 16:35:45;;;;;;;;;;;26.90;99.90;;;;;;10143850;28;85829;-54
2022/06/15 16:40:47;;;;;;;;;;;26.80;99.90;;;;;;10154564;28;85429;-51
2022/06/15 16:45:48;;;;;;;;;;;26.80;99.90;;;;;;10143665;28;84952;-54
2022/06/15 16:50:48;;;;;;;;;;;26.60;99.90;;;;;;10158721;28;84048;-55
2022/06/15 16:55:49;;;;;;;;;;;26.60;99.90;;;;;;10157628;28;87210;-53
2022/06/15 17:00:50;;;;;;;;;;;26.40;99.90;;;;;;10166630;28;84266;-48
2022/06/15 17:05:54;;;;;;;;;;;26.20;99.90;;;;;;10157231;28;85370;-52
2022/06/15 17:10:54;;;;;;;;;;;26.10;99.90;;;;;;10188667;28;84448;-49
2022/06/15 17:15:55;;;;;;;;;;;26.00;99.90;;;;;;10162988;28;84892;-56
2022/06/15 17:20:56;;;;;;;;;;;26.10;99.90;;;;;;10171989;28;84098;-57
2022/06/15 17:25:57;;;;;;;;;;;26.10;99.90;;;;;;10155424;28;86149;-56
2022/06/15 17:30:57;;;;;;;;;;;26.20;99.90;;;;;;10134785;28;85045;-57
2022/06/15 17:35:58;;;;;;;;;;;26.20;99.90;;;;;;10136846;28;84717;-52
2022/06/15 17:40:59;;;;;;;;;;;26.20;99.90;;;;;;10133303;28;84257;-57
2022/06/15 17:46:01;;;;;;;;;;;26.20;99.90;;;;;;10135298;28;85663;-60
2022/06/15 17:51:02;;;;;;;;;;;26.00;99.90;;;;;;10139668;28;85252;-60
2022/06/15 17:56:03;;;;;;;;;;;25.90;99.90;;;;;;10135811;28;85659;-57
2022/06/15 18:01:04;;;;;;;;;;;25.80;99.90;;;;;;10143251;28;86524;-57
2022/06/15 18:06:06;;;;;;;;;;;25.60;99.90;;;;;;10143944;28;84912;-55
2022/06/15 18:11:08;;;;;;;;;;;25.40;99.90;;;;;;10188650;28;85835;-51
2022/06/15 18:16:13;;;;;;;;;;;25.20;99.90;;;;;;10164695;28;84232;-56
2022/06/15 18:21:13;;;;;;;;;;;24.90;99.90;;;;;;10172552;28;84959;-51
2022/06/15 18:26:14;;;;;;;;;;;24.70;99.90;;;;;;10177561;28;84841;-50
2022/06/15 18:31:15;;;;;;;;;;;24.80;99.90;;;;;;10179700;28;84787;-53
2022/06/15 18:36:17;;;;;;;;;;;24.80;99.90;;;;;;10177748;28;84141;-49
2022/06/15 18:41:17;;;;;;;;;;;24.70;99.90;;;;;;10173051;28;85249;-54
2022/06/15 18:51:37;;;;;;;;;;;24.40;1.00;;;;;;10166846;28;85353;-53
2022/06/15 18:56:38;;;;;;;;;;;24.30;1.00;;;;;;10176376;28;84781;-49
2022/06/15 19:01:38;;;;;;;;;;;24.20;1.00;;;;;;10173168;28;84405;-54
2022/06/15 19:06:40;;;;;;;;;;;24.10;1.00;;;;;;10171039;28;84095;-55
2022/06/15 19:11:40;;;;;;;;;;;24.00;1.00;;;;;;10186996;28;85148;-54
2022/06/15 19:16:41;;;;;;;;;;;24.00;1.00;;;;;;10162579;28;84235;-51
2022/06/15 19:21:41;;;;;;;;;;;23.80;1.00;;;;;;10167969;28;84974;-54
2022/06/15 19:26:44;;;;;;;;;;;23.60;1.00;;;;;;10164731;28;84785;-55
2022/06/15 19:31:44;;;;;;;;;;;23.40;1.00;;;;;;10168549;28;84276;-59
2022/06/15 19:36:45;;;;;;;;;;;23.30;1.00;;;;;;10169616;28;84933;-53
2022/06/15 19:41:45;;;;;;;;;;;23.20;1.00;;;;;;10175476;28;85588;-54
2022/06/15 19:46:46;;;;;;;;;;;23.00;1.00;;;;;;10167362;28;85026;-55
2022/06/15 19:51:46;;;;;;;;;;;22.90;1.00;;;;;;10168358;28;84921;-55
2022/06/15 19:56:48;;;;;;;;;;;22.50;1.00;;;;;;10157298;28;86960;-54
2022/06/15 20:01:50;;;;;;;;;;;22.20;99.90;;;;;;10165452;28;84268;-51
2022/06/15 20:06:52;;;;;;;;;;;22.00;1.00;;;;;;10165455;28;85045;-56
2022/06/15 20:11:53;;;;;;;;;;;21.70;1.00;;;;;;10153512;28;85036;-54
2022/06/15 20:16:53;;;;;;;;;;;21.50;64.80;;;;;;10167140;28;84264;-55
2022/06/15 20:21:54;;;;;;;;;;;21.40;1.00;;;;;;10167738;28;84787;-54
2022/06/15 20:26:55;;;;;;;;;;;21.20;1.00;;;;;;10131250;28;84918;-51
2022/06/15 20:31:55;;;;;;;;;;;21.00;99.90;;;;;;10128792;28;84217;-59
2022/06/15 20:36:57;;;;;;;;;;;20.80;1.00;;;;;;10164373;28;84873;-55
2022/06/15 20:41:58;;;;;;;;;;;20.50;1.00;;;;;;10168315;28;85287;-53
2022/06/15 20:47:00;;;;;;;;;;;20.30;1.00;;;;;;10131789;28;85283;-56
2022/06/15 20:52:02;;;;;;;;;;;20.10;99.90;;;;;;10128238;28;84093;-52
2022/06/15 20:57:04;;;;;;;;;;;19.90;99.90;;;;;;10146234;28;84011;-54
2022/06/15 21:02:07;;;;;;;;;;;19.80;99.90;;;;;;10149725;28;87695;-57
2022/06/15 21:07:12;;;;;;;;;;;19.70;99.90;;;;;;10151018;28;84948;-53
2022/06/15 21:17:36;;;;;;;;;;;19.50;1.00;;;;;;10129666;28;84298;-55
2022/06/15 21:22:37;;;;;;;;;;;19.30;1.00;;;;;;10127788;28;84913;-55
2022/06/15 21:27:38;;;;;;;;;;;19.20;1.00;;;;;;10159241;28;84202;-56
2022/06/15 21:32:39;;;;;;;;;;;19.10;1.00;;;;;;10165370;28;85024;-50
2022/06/15 21:37:39;;;;;;;;;;;19.00;1.00;;;;;;10164296;28;85268;-55
2022/06/15 21:42:45;;;;;;;;;;;18.80;1.00;;;;;;10159892;28;84827;-53
2022/06/15 21:47:47;;;;;;;;;;;18.60;1.00;;;;;;10164186;28;84185;-57
2022/06/15 21:52:49;;;;;;;;;;;18.50;99.90;;;;;;10164270;28;84828;-58
2022/06/15 21:57:49;;;;;;;;;;;18.30;99.90;;;;;;10178053;28;87392;-54
2022/06/15 22:02:50;;;;;;;;;;;18.30;99.90;;;;;;10162143;28;85377;-50
2022/06/15 22:07:50;;;;;;;;;;;18.20;99.90;;;;;;10164076;28;84036;-55
2022/06/15 22:12:52;;;;;;;;;;;18.00;99.90;;;;;;10162359;28;87170;-53
2022/06/15 22:17:52;;;;;;;;;;;18.00;99.90;;;;;;10130730;28;84093;-53
2022/06/15 22:22:56;;;;;;;;;;;17.90;99.90;;;;;;10123613;28;85104;-50
2022/06/15 22:27:56;;;;;;;;;;;17.90;99.90;;;;;;10125820;28;84764;-54
2022/06/15 22:32:57;;;;;;;;;;;17.80;99.90;;;;;;10131411;28;84290;-52
2022/06/15 22:37:57;;;;;;;;;;;17.70;99.90;;;;;;10165271;28;84456;-50
2022/06/15 22:42:58;;;;;;;;;;;17.60;99.90;;;;;;10162267;28;85621;-53
2022/06/15 22:47:59;;;;;;;;;;;17.50;34.80;;;;;;10164687;28;84134;-54
2022/06/15 22:52:59;;;;;;;;;;;17.40;99.90;;;;;;10168207;28;84845;-55
2022/06/15 22:58:00;;;;;;;;;;;17.30;99.90;;;;;;10171422;28;84087;-53
2022/06/15 23:03:02;;;;;;;;;;;17.20;1.00;;;;;;10170844;28;85497;-53
2022/06/15 23:08:03;;;;;;;;;;;17.10;1.00;;;;;;10169961;28;84481;-56
2022/06/15 23:13:04;;;;;;;;;;;17.20;99.90;;;;;;10171045;28;84146;-57
2022/06/15 23:18:05;;;;;;;;;;;17.20;99.90;;;;;;10171355;28;84995;-54
2022/06/15 23:23:06;;;;;;;;;;;17.10;99.90;;;;;;10157871;28;84813;-56
2022/06/15 23:28:06;;;;;;;;;;;17.10;1.00;;;;;;10170710;28;84105;-55
2022/06/15 23:33:07;;;;;;;;;;;17.00;1.00;;;;;;10170871;28;84186;-56
2022/06/15 23:38:07;;;;;;;;;;;16.90;99.90;;;;;;10167970;28;84205;-52
2022/06/15 23:43:08;;;;;;;;;;;16.90;99.90;;;;;;10130584;28;84743;-56
2022/06/15 23:48:09;;;;;;;;;;;16.90;46.90;;;;;;10131633;28;85012;-52
2022/06/15 23:53:11;;;;;;;;;;;16.80;1.00;;;;;;10113714;28;84166;-57
2022/06/15 23:58:12;;;;;;;;;;;16.80;1.00;;;;;;10131909;28;84862;-55
